sensor_id;sensor_type;location;lat;lon;timestamp;temperature;humidity
18894;DHT22;9579;49.488;8.226;2022-08-25T05:02:12;20.60;86.10
18894;DHT22;9579;49.488;8.226;2022-08-25T05:05:00;20.40;86.70
18894;DHT22;9579;49.488;8.226;2022-08-25T05:07:49;20.50;87.30
18894;DHT22;9579;49.488;8.226;2022-08-25T05:10:38;20.60;87.60
18894;DHT22;9579;49.488;8.226;2022-08-25T05:13:26;20.70;87.50
18894;DHT22;9579;49.488;8.226;2022-08-25T05:16:13;20.80;87.40
18894;DHT22;9579;49.488;8.226;2022-08-25T05:19:02;20.90;87.20
18894;DHT22;9579;49.488;8.226;2022-08-25T05:21:49;20.90;86.90
18894;DHT22;9579;49.488;8.226;2022-08-25T05:24:37;21.00;86.60
18894;DHT22;9579;49.488;8.226;2022-08-25T05:27:24;21.00;86.70
18894;DHT22;9579;49.488;8.226;2022-08-25T05:30:11;20.90;86.90
18894;DHT22;9579;49.488;8.226;2022-08-25T05:32:58;21.00;86.90
18894;DHT22;9579;49.488;8.226;2022-08-25T05:35:46;21.10;86.90
18894;DHT22;9579;49.488;8.226;2022-08-25T05:38:33;21.20;86.80
18894;DHT22;9579;49.488;8.226;2022-08-25T05:41:25;21.30;86.60
18894;DHT22;9579;49.488;8.226;2022-08-25T05:44:12;21.50;86.60
18894;DHT22;9579;49.488;8.226;2022-08-25T05:46:59;21.60;86.40
18894;DHT22;9579;49.488;8.226;2022-08-25T05:49:46;21.70;86.30
18894;DHT22;9579;49.488;8.226;2022-08-25T05:52:35;21.80;86.50
18894;DHT22;9579;49.488;8.226;2022-08-25T05:55:22;22.10;86.40
18894;DHT22;9579;49.488;8.226;2022-08-25T05:58:09;22.30;86.00
18894;DHT22;9579;49.488;8.226;2022-08-25T06:00:57;22.50;85.60
18894;DHT22;9579;49.488;8.226;2022-08-25T06:04:04;22.70;85.40
18894;DHT22;9579;49.488;8.226;2022-08-25T06:06:51;23.00;85.10
18894;DHT22;9579;49.488;8.226;2022-08-25T06:09:41;23.30;84.50
18894;DHT22;9579;49.488;8.226;2022-08-25T06:12:32;23.50;84.20
18894;DHT22;9579;49.488;8.226;2022-08-25T06:15:22;23.80;83.50
18894;DHT22;9579;49.488;8.226;2022-08-25T06:18:09;24.00;83.10
18894;DHT22;9579;49.488;8.226;2022-08-25T06:20:56;24.20;82.80
18894;DHT22;9579;49.488;8.226;2022-08-25T06:23:43;24.40;82.60
18894;DHT22;9579;49.488;8.226;2022-08-25T06:26:32;24.70;81.00
18894;DHT22;9579;49.488;8.226;2022-08-25T06:29:20;24.80;79.60
18894;DHT22;9579;49.488;8.226;2022-08-25T06:32:07;25.10;79.10
18894;DHT22;9579;49.488;8.226;2022-08-25T06:34:54;25.30;78.20
18894;DHT22;9579;49.488;8.226;2022-08-25T06:37:43;25.60;77.70
18894;DHT22;9579;49.488;8.226;2022-08-25T06:40:30;25.70;77.20
18894;DHT22;9579;49.488;8.226;2022-08-25T06:43:20;25.90;76.40
18894;DHT22;9579;49.488;8.226;2022-08-25T06:46:08;26.10;75.90
18894;DHT22;9579;49.488;8.226;2022-08-25T06:48:56;26.30;75.40
18894;DHT22;9579;49.488;8.226;2022-08-25T06:51:43;26.50;74.90
18894;DHT22;9579;49.488;8.226;2022-08-25T06:54:30;26.70;74.80
18894;DHT22;9579;49.488;8.226;2022-08-25T06:57:18;26.90;74.40
18894;DHT22;9579;49.488;8.226;2022-08-25T07:00:07;27.00;73.90
18894;DHT22;9579;49.488;8.226;2022-08-25T07:02:55;27.20;73.20
18894;DHT22;9579;49.488;8.226;2022-08-25T07:05:50;27.40;72.90
18894;DHT22;9579;49.488;8.226;2022-08-25T07:08:37;27.60;73.40
18894;DHT22;9579;49.488;8.226;2022-08-25T07:11:24;27.70;72.30
18894;DHT22;9579;49.488;8.226;2022-08-25T07:14:13;27.90;71.30
18894;DHT22;9579;49.488;8.226;2022-08-25T07:17:03;28.00;71.80
18894;DHT22;9579;49.488;8.226;2022-08-25T07:19:50;28.20;71.60
18894;DHT22;9579;49.488;8.226;2022-08-25T07:22:37;28.30;71.70
18894;DHT22;9579;49.488;8.226;2022-08-25T07:25:25;28.40;71.50
18894;DHT22;9579;49.488;8.226;2022-08-25T07:28:13;28.50;70.70
18894;DHT22;9579;49.488;8.226;2022-08-25T07:31:00;28.50;70.90
18894;DHT22;9579;49.488;8.226;2022-08-25T07:33:49;28.60;70.70
18894;DHT22;9579;49.488;8.226;2022-08-25T07:36:54;28.60;70.90
18894;DHT22;9579;49.488;8.226;2022-08-25T07:39:41;28.60;70.90
18894;DHT22;9579;49.488;8.226;2022-08-25T07:42:29;28.70;71.00
18894;DHT22;9579;49.488;8.226;2022-08-25T07:45:16;28.80;70.60
18894;DHT22;9579;49.488;8.226;2022-08-25T07:48:06;28.90;70.60
18894;DHT22;9579;49.488;8.226;2022-08-25T07:50:55;29.10;70.50
18894;DHT22;9579;49.488;8.226;2022-08-25T07:53:42;29.20;69.40
18894;DHT22;9579;49.488;8.226;2022-08-25T07:56:29;29.40;70.00
18894;DHT22;9579;49.488;8.226;2022-08-25T07:59:16;29.60;69.40
18894;DHT22;9579;49.488;8.226;2022-08-25T08:02:03;29.80;68.80
18894;DHT22;9579;49.488;8.226;2022-08-25T08:04:51;30.10;68.80
18894;DHT22;9579;49.488;8.226;2022-08-25T08:07:40;30.30;67.90
18894;DHT22;9579;49.488;8.226;2022-08-25T08:10:27;30.50;67.40
18894;DHT22;9579;49.488;8.226;2022-08-25T08:13:14;30.80;66.30
18894;DHT22;9579;49.488;8.226;2022-08-25T08:16:02;30.90;66.20
18894;DHT22;9579;49.488;8.226;2022-08-25T08:18:54;31.10;65.20
18894;DHT22;9579;49.488;8.226;2022-08-25T08:21:41;31.20;65.00
18894;DHT22;9579;49.488;8.226;2022-08-25T08:24:30;31.20;65.40
18894;DHT22;9579;49.488;8.226;2022-08-25T08:27:19;31.30;65.20
18894;DHT22;9579;49.488;8.226;2022-08-25T08:30:07;31.50;64.90
18894;DHT22;9579;49.488;8.226;2022-08-25T08:32:54;31.80;64.80
18894;DHT22;9579;49.488;8.226;2022-08-25T08:35:41;31.90;63.20
18894;DHT22;9579;49.488;8.226;2022-08-25T08:38:29;32.00;62.60
18894;DHT22;9579;49.488;8.226;2022-08-25T08:41:31;32.20;63.30
18894;DHT22;9579;49.488;8.226;2022-08-25T08:45:01;32.40;61.80
18894;DHT22;9579;49.488;8.226;2022-08-25T08:47:57;32.20;62.40
18894;DHT22;9579;49.488;8.226;2022-08-25T08:50:55;32.10;63.20
18894;DHT22;9579;49.488;8.226;2022-08-25T08:53:52;32.30;63.00
18894;DHT22;9579;49.488;8.226;2022-08-25T08:56:43;32.50;62.30
18894;DHT22;9579;49.488;8.226;2022-08-25T08:59:40;32.80;62.00
18894;DHT22;9579;49.488;8.226;2022-08-25T09:02:34;32.90;61.40
18894;DHT22;9579;49.488;8.226;2022-08-25T09:05:26;33.00;60.70
18894;DHT22;9579;49.488;8.226;2022-08-25T09:08:15;32.80;60.90
18894;DHT22;9579;49.488;8.226;2022-08-25T09:11:08;33.00;60.80
18894;DHT22;9579;49.488;8.226;2022-08-25T09:14:07;33.10;59.90
18894;DHT22;9579;49.488;8.226;2022-08-25T09:17:02;32.90;61.50
18894;DHT22;9579;49.488;8.226;2022-08-25T09:20:10;32.90;59.40
18894;DHT22;9579;49.488;8.226;2022-08-25T09:23:03;32.90;60.40
18894;DHT22;9579;49.488;8.226;2022-08-25T09:25:57;32.90;60.30
18894;DHT22;9579;49.488;8.226;2022-08-25T09:28:47;33.20;61.20
18894;DHT22;9579;49.488;8.226;2022-08-25T09:31:38;33.20;59.50
18894;DHT22;9579;49.488;8.226;2022-08-25T09:34:29;33.20;59.90
18894;DHT22;9579;49.488;8.226;2022-08-25T09:37:18;33.10;59.90
18894;DHT22;9579;49.488;8.226;2022-08-25T09:40:06;33.10;60.40
18894;DHT22;9579;49.488;8.226;2022-08-25T09:42:56;33.50;59.70
18894;DHT22;9579;49.488;8.226;2022-08-25T09:45:46;33.80;59.30
18894;DHT22;9579;49.488;8.226;2022-08-25T09:48:44;34.00;58.80
18894;DHT22;9579;49.488;8.226;2022-08-25T09:51:34;34.30;58.50
18894;DHT22;9579;49.488;8.226;2022-08-25T09:54:21;34.50;57.70
18894;DHT22;9579;49.488;8.226;2022-08-25T09:57:27;34.30;57.30
18894;DHT22;9579;49.488;8.226;2022-08-25T10:00:17;33.80;58.70
18894;DHT22;9579;49.488;8.226;2022-08-25T10:03:10;33.60;57.60
18894;DHT22;9579;49.488;8.226;2022-08-25T10:06:05;33.50;58.70
18894;DHT22;9579;49.488;8.226;2022-08-25T10:08:57;33.50;58.90
18894;DHT22;9579;49.488;8.226;2022-08-25T10:11:45;33.80;57.80
18894;DHT22;9579;49.488;8.226;2022-08-25T10:14:34;34.00;57.00
18894;DHT22;9579;49.488;8.226;2022-08-25T10:17:27;33.80;56.80
18894;DHT22;9579;49.488;8.226;2022-08-25T10:20:18;33.90;56.40
18894;DHT22;9579;49.488;8.226;2022-08-25T10:23:12;33.90;55.90
18894;DHT22;9579;49.488;8.226;2022-08-25T10:26:04;33.90;56.90
18894;DHT22;9579;49.488;8.226;2022-08-25T10:29:08;34.00;55.70
18894;DHT22;9579;49.488;8.226;2022-08-25T10:32:04;34.10;56.60
18894;DHT22;9579;49.488;8.226;2022-08-25T10:34:54;34.30;57.00
18894;DHT22;9579;49.488;8.226;2022-08-25T10:37:51;34.50;55.60
18894;DHT22;9579;49.488;8.226;2022-08-25T10:40:48;34.80;56.40
18894;DHT22;9579;49.488;8.226;2022-08-25T10:43:42;35.00;56.00
18894;DHT22;9579;49.488;8.226;2022-08-25T10:46:38;34.80;54.40
18894;DHT22;9579;49.488;8.226;2022-08-25T10:49:32;34.70;54.30
18894;DHT22;9579;49.488;8.226;2022-08-25T10:52:27;34.70;54.20
18894;DHT22;9579;49.488;8.226;2022-08-25T10:55:19;34.80;53.00
18894;DHT22;9579;49.488;8.226;2022-08-25T10:58:20;34.40;53.50
18894;DHT22;9579;49.488;8.226;2022-08-25T11:01:16;34.40;54.20
18894;DHT22;9579;49.488;8.226;2022-08-25T11:04:08;34.20;54.60
18894;DHT22;9579;49.488;8.226;2022-08-25T11:06:59;34.30;55.30
18894;DHT22;9579;49.488;8.226;2022-08-25T11:09:50;34.50;54.60
18894;DHT22;9579;49.488;8.226;2022-08-25T11:12:42;34.60;55.10
18894;DHT22;9579;49.488;8.226;2022-08-25T11:15:36;34.70;55.60
18894;DHT22;9579;49.488;8.226;2022-08-25T11:18:25;34.90;54.40
18894;DHT22;9579;49.488;8.226;2022-08-25T11:21:17;35.10;54.80
18894;DHT22;9579;49.488;8.226;2022-08-25T11:24:14;35.30;54.20
18894;DHT22;9579;49.488;8.226;2022-08-25T11:27:04;35.30;53.40
18894;DHT22;9579;49.488;8.226;2022-08-25T11:29:58;35.40;53.70
18894;DHT22;9579;49.488;8.226;2022-08-25T11:32:51;35.50;52.60
18894;DHT22;9579;49.488;8.226;2022-08-25T11:35:42;35.60;54.00
18894;DHT22;9579;49.488;8.226;2022-08-25T11:38:41;35.70;52.10
18894;DHT22;9579;49.488;8.226;2022-08-25T11:41:37;35.80;52.70
18894;DHT22;9579;49.488;8.226;2022-08-25T11:44:38;36.20;53.20
18894;DHT22;9579;49.488;8.226;2022-08-25T11:50:58;36.90;50.30
18894;DHT22;9579;49.488;8.226;2022-08-25T11:53:46;37.10;51.20
18894;DHT22;9579;49.488;8.226;2022-08-25T11:56:36;37.20;50.90
18894;DHT22;9579;49.488;8.226;2022-08-25T11:59:59;37.20;49.50
18894;DHT22;9579;49.488;8.226;2022-08-25T12:02:48;37.20;50.80
18894;DHT22;9579;49.488;8.226;2022-08-25T12:05:50;37.40;49.70
18894;DHT22;9579;49.488;8.226;2022-08-25T12:08:51;37.40;50.10
18894;DHT22;9579;49.488;8.226;2022-08-25T12:11:50;37.10;49.10
18894;DHT22;9579;49.488;8.226;2022-08-25T12:14:43;36.90;49.80
18894;DHT22;9579;49.488;8.226;2022-08-25T12:17:37;36.20;50.30
18894;DHT22;9579;49.488;8.226;2022-08-25T12:21:08;36.20;51.80
18894;DHT22;9579;49.488;8.226;2022-08-25T12:24:14;36.90;50.80
18894;DHT22;9579;49.488;8.226;2022-08-25T12:27:03;37.40;49.80
18894;DHT22;9579;49.488;8.226;2022-08-25T12:29:56;38.00;50.60
18894;DHT22;9579;49.488;8.226;2022-08-25T12:33:00;38.30;48.40
18894;DHT22;9579;49.488;8.226;2022-08-25T12:35:55;38.80;48.00
18894;DHT22;9579;49.488;8.226;2022-08-25T12:38:49;39.10;48.20
18894;DHT22;9579;49.488;8.226;2022-08-25T12:41:51;39.40;47.50
18894;DHT22;9579;49.488;8.226;2022-08-25T12:44:41;39.00;48.20
18894;DHT22;9579;49.488;8.226;2022-08-25T12:47:30;38.50;49.30
18894;DHT22;9579;49.488;8.226;2022-08-25T12:50:40;38.10;49.50
18894;DHT22;9579;49.488;8.226;2022-08-25T12:53:33;38.80;48.40
18894;DHT22;9579;49.488;8.226;2022-08-25T12:56:25;39.10;46.90
18894;DHT22;9579;49.488;8.226;2022-08-25T12:59:19;39.20;46.90
18894;DHT22;9579;49.488;8.226;2022-08-25T13:05:44;39.70;45.50
18894;DHT22;9579;49.488;8.226;2022-08-25T13:08:46;40.10;45.30
18894;DHT22;9579;49.488;8.226;2022-08-25T13:11:46;40.50;45.70
18894;DHT22;9579;49.488;8.226;2022-08-25T13:14:37;40.80;44.30
18894;DHT22;9579;49.488;8.226;2022-08-25T13:17:27;41.10;44.00
18894;DHT22;9579;49.488;8.226;2022-08-25T13:20:17;41.30;44.00
18894;DHT22;9579;49.488;8.226;2022-08-25T13:23:05;41.50;45.10
18894;DHT22;9579;49.488;8.226;2022-08-25T13:25:52;42.00;44.50
18894;DHT22;9579;49.488;8.226;2022-08-25T13:28:40;42.30;42.80
18894;DHT22;9579;49.488;8.226;2022-08-25T13:31:29;41.90;43.20
18894;DHT22;9579;49.488;8.226;2022-08-25T13:34:19;41.50;42.50
18894;DHT22;9579;49.488;8.226;2022-08-25T13:37:08;41.30;43.90
18894;DHT22;9579;49.488;8.226;2022-08-25T13:40:19;41.50;42.60
18894;DHT22;9579;49.488;8.226;2022-08-25T13:43:09;40.50;43.00
18894;DHT22;9579;49.488;8.226;2022-08-25T13:45:57;40.10;44.10
18894;DHT22;9579;49.488;8.226;2022-08-25T13:48:45;40.30;45.10
18894;DHT22;9579;49.488;8.226;2022-08-25T13:51:33;39.90;44.10
18894;DHT22;9579;49.488;8.226;2022-08-25T13:54:24;38.80;45.70
18894;DHT22;9579;49.488;8.226;2022-08-25T13:57:17;38.40;47.40
18894;DHT22;9579;49.488;8.226;2022-08-25T14:00:07;38.30;47.00
18894;DHT22;9579;49.488;8.226;2022-08-25T14:02:55;38.80;45.80
18894;DHT22;9579;49.488;8.226;2022-08-25T14:05:43;39.30;45.80
18894;DHT22;9579;49.488;8.226;2022-08-25T14:08:32;39.90;45.10
18894;DHT22;9579;49.488;8.226;2022-08-25T14:11:31;40.40;44.60
18894;DHT22;9579;49.488;8.226;2022-08-25T14:14:30;40.60;44.10
18894;DHT22;9579;49.488;8.226;2022-08-25T14:17:17;39.70;43.50
18894;DHT22;9579;49.488;8.226;2022-08-25T14:20:06;39.30;45.00
18894;DHT22;9579;49.488;8.226;2022-08-25T14:23:05;39.40;44.20
18894;DHT22;9579;49.488;8.226;2022-08-25T14:25:54;39.40;44.80
18894;DHT22;9579;49.488;8.226;2022-08-25T14:28:42;39.60;44.70
18894;DHT22;9579;49.488;8.226;2022-08-25T14:31:31;40.00;44.70
18894;DHT22;9579;49.488;8.226;2022-08-25T14:34:22;40.30;44.90
18894;DHT22;9579;49.488;8.226;2022-08-25T14:37:13;40.60;43.60
18894;DHT22;9579;49.488;8.226;2022-08-25T14:40:04;40.80;43.00
18894;DHT22;9579;49.488;8.226;2022-08-25T14:42:51;40.90;42.50
18894;DHT22;9579;49.488;8.226;2022-08-25T14:45:41;40.90;42.80
18894;DHT22;9579;49.488;8.226;2022-08-25T14:48:30;41.00;42.70
18894;DHT22;9579;49.488;8.226;2022-08-25T14:51:19;40.80;43.00
18894;DHT22;9579;49.488;8.226;2022-08-25T14:54:11;41.20;42.90
18894;DHT22;9579;49.488;8.226;2022-08-25T14:57:01;41.00;42.30
18894;DHT22;9579;49.488;8.226;2022-08-25T14:59:48;40.40;42.40
18894;DHT22;9579;49.488;8.226;2022-08-25T15:02:52;40.30;42.70
18894;DHT22;9579;49.488;8.226;2022-08-25T15:05:44;40.30;43.20
18894;DHT22;9579;49.488;8.226;2022-08-25T15:08:38;40.00;43.50
18894;DHT22;9579;49.488;8.226;2022-08-25T15:11:45;40.30;43.60
18894;DHT22;9579;49.488;8.226;2022-08-25T15:14:39;40.10;43.50
18894;DHT22;9579;49.488;8.226;2022-08-25T15:17:26;40.00;44.70
18894;DHT22;9579;49.488;8.226;2022-08-25T15:20:13;40.10;44.10
18894;DHT22;9579;49.488;8.226;2022-08-25T15:23:01;40.10;44.50
18894;DHT22;9579;49.488;8.226;2022-08-25T15:26:13;39.80;44.40
18894;DHT22;9579;49.488;8.226;2022-08-25T15:29:01;39.40;45.00
18894;DHT22;9579;49.488;8.226;2022-08-25T15:31:49;39.10;45.00
18894;DHT22;9579;49.488;8.226;2022-08-25T15:34:37;38.60;45.80
18894;DHT22;9579;49.488;8.226;2022-08-25T15:37:24;38.20;46.60
18894;DHT22;9579;49.488;8.226;2022-08-25T15:40:11;37.90;46.20
18894;DHT22;9579;49.488;8.226;2022-08-25T15:42:58;37.60;47.10
18894;DHT22;9579;49.488;8.226;2022-08-25T15:45:47;37.40;47.00
18894;DHT22;9579;49.488;8.226;2022-08-25T15:48:36;37.30;47.30
18894;DHT22;9579;49.488;8.226;2022-08-25T15:51:23;36.90;48.40
18894;DHT22;9579;49.488;8.226;2022-08-25T15:54:10;36.70;48.50
18894;DHT22;9579;49.488;8.226;2022-08-25T15:56:59;36.50;48.60
18894;DHT22;9579;49.488;8.226;2022-08-25T15:59:46;36.30;48.10
18894;DHT22;9579;49.488;8.226;2022-08-25T16:02:33;36.10;48.40
18894;DHT22;9579;49.488;8.226;2022-08-25T16:05:22;35.80;48.60
18894;DHT22;9579;49.488;8.226;2022-08-25T16:08:09;35.50;50.00
18894;DHT22;9579;49.488;8.226;2022-08-25T16:10:56;35.50;49.10
18894;DHT22;9579;49.488;8.226;2022-08-25T16:13:44;35.30;50.40
18894;DHT22;9579;49.488;8.226;2022-08-25T16:16:31;35.10;50.00
18894;DHT22;9579;49.488;8.226;2022-08-25T16:19:18;35.10;49.60
18894;DHT22;9579;49.488;8.226;2022-08-25T16:22:06;35.00;49.80
18894;DHT22;9579;49.488;8.226;2022-08-25T16:24:53;34.70;50.60
18894;DHT22;9579;49.488;8.226;2022-08-25T16:27:40;34.60;50.30
18894;DHT22;9579;49.488;8.226;2022-08-25T16:30:27;34.50;50.50
18894;DHT22;9579;49.488;8.226;2022-08-25T16:33:16;34.30;51.10
18894;DHT22;9579;49.488;8.226;2022-08-25T16:36:06;34.20;51.40
18894;DHT22;9579;49.488;8.226;2022-08-25T16:38:56;34.00;52.70
18894;DHT22;9579;49.488;8.226;2022-08-25T16:41:45;34.00;53.50
18894;DHT22;9579;49.488;8.226;2022-08-25T16:44:32;33.90;53.60
18894;DHT22;9579;49.488;8.226;2022-08-25T16:47:20;33.80;51.70
18894;DHT22;9579;49.488;8.226;2022-08-25T16:50:12;33.80;52.20
18894;DHT22;9579;49.488;8.226;2022-08-25T16:53:00;33.70;53.10
18894;DHT22;9579;49.488;8.226;2022-08-25T16:56:06;33.70;53.20
18894;DHT22;9579;49.488;8.226;2022-08-25T16:58:54;33.60;52.70
18894;DHT22;9579;49.488;8.226;2022-08-25T17:01:42;33.60;52.50
18894;DHT22;9579;49.488;8.226;2022-08-25T17:04:29;33.40;51.90
18894;DHT22;9579;49.488;8.226;2022-08-25T17:07:16;33.40;53.50
18894;DHT22;9579;49.488;8.226;2022-08-25T17:10:05;33.30;53.60
18894;DHT22;9579;49.488;8.226;2022-08-25T17:12:54;33.40;52.80
18894;DHT22;9579;49.488;8.226;2022-08-25T17:15:50;33.40;53.00
18894;DHT22;9579;49.488;8.226;2022-08-25T17:18:41;33.40;52.50
18894;DHT22;9579;49.488;8.226;2022-08-25T17:21:31;33.30;52.70
18894;DHT22;9579;49.488;8.226;2022-08-25T17:24:19;33.30;53.10
18894;DHT22;9579;49.488;8.226;2022-08-25T17:27:06;33.10;53.20
18894;DHT22;9579;49.488;8.226;2022-08-25T17:29:54;33.00;53.60
18894;DHT22;9579;49.488;8.226;2022-08-25T17:32:41;33.00;53.70
18894;DHT22;9579;49.488;8.226;2022-08-25T17:35:28;32.90;53.90
18894;DHT22;9579;49.488;8.226;2022-08-25T17:38:16;32.80;54.90
18894;DHT22;9579;49.488;8.226;2022-08-25T17:41:06;32.70;55.60
18894;DHT22;9579;49.488;8.226;2022-08-25T17:43:53;32.60;56.40
18894;DHT22;9579;49.488;8.226;2022-08-25T17:46:41;32.40;56.60
18894;DHT22;9579;49.488;8.226;2022-08-25T17:49:28;32.30;57.40
18894;DHT22;9579;49.488;8.226;2022-08-25T17:52:15;32.20;56.20
18894;DHT22;9579;49.488;8.226;2022-08-25T17:55:03;32.00;57.20
18894;DHT22;9579;49.488;8.226;2022-08-25T17:57:50;32.00;57.70
18894;DHT22;9579;49.488;8.226;2022-08-25T18:00:44;31.90;58.50
18894;DHT22;9579;49.488;8.226;2022-08-25T18:03:33;31.70;57.70
18894;DHT22;9579;49.488;8.226;2022-08-25T18:06:20;31.60;57.50
18894;DHT22;9579;49.488;8.226;2022-08-25T18:09:07;31.50;57.80
18894;DHT22;9579;49.488;8.226;2022-08-25T18:11:55;31.40;58.30
18894;DHT22;9579;49.488;8.226;2022-08-25T18:14:42;31.30;58.20
18894;DHT22;9579;49.488;8.226;2022-08-25T18:17:29;31.30;58.30
18894;DHT22;9579;49.488;8.226;2022-08-25T18:20:17;31.20;58.60
18894;DHT22;9579;49.488;8.226;2022-08-25T18:23:04;31.10;58.90
18894;DHT22;9579;49.488;8.226;2022-08-25T18:25:53;30.90;59.20
18894;DHT22;9579;49.488;8.226;2022-08-25T18:28:40;30.90;59.60
18894;DHT22;9579;49.488;8.226;2022-08-25T18:31:28;30.70;59.90
18894;DHT22;9579;49.488;8.226;2022-08-25T18:34:14;30.60;60.40
18894;DHT22;9579;49.488;8.226;2022-08-25T18:37:06;30.50;60.80
18894;DHT22;9579;49.488;8.226;2022-08-25T18:40:08;30.40;61.00
18894;DHT22;9579;49.488;8.226;2022-08-25T18:43:12;30.30;61.60
18894;DHT22;9579;49.488;8.226;2022-08-25T18:46:00;30.20;61.60
18894;DHT22;9579;49.488;8.226;2022-08-25T18:48:49;30.20;61.70
18894;DHT22;9579;49.488;8.226;2022-08-25T18:51:37;30.00;61.80
18894;DHT22;9579;49.488;8.226;2022-08-25T18:54:25;29.90;62.20
18894;DHT22;9579;49.488;8.226;2022-08-25T18:57:12;29.90;63.30
18894;DHT22;9579;49.488;8.226;2022-08-25T19:00:00;29.80;63.00
18894;DHT22;9579;49.488;8.226;2022-08-25T19:02:49;29.80;62.80
18894;DHT22;9579;49.488;8.226;2022-08-25T19:05:39;29.70;62.00
18894;DHT22;9579;49.488;8.226;2022-08-25T19:08:27;29.60;62.90
18894;DHT22;9579;49.488;8.226;2022-08-25T19:11:15;29.50;63.40
18894;DHT22;9579;49.488;8.226;2022-08-25T19:14:02;29.40;63.50
18894;DHT22;9579;49.488;8.226;2022-08-25T19:16:50;29.30;63.80
18894;DHT22;9579;49.488;8.226;2022-08-25T19:19:38;29.10;64.60
18894;DHT22;9579;49.488;8.226;2022-08-25T19:22:25;28.90;65.20
18894;DHT22;9579;49.488;8.226;2022-08-25T19:25:13;28.90;65.30
18894;DHT22;9579;49.488;8.226;2022-08-25T19:28:04;28.80;64.90
18894;DHT22;9579;49.488;8.226;2022-08-25T19:30:51;28.80;64.80
18894;DHT22;9579;49.488;8.226;2022-08-25T19:33:38;28.70;64.60
18894;DHT22;9579;49.488;8.226;2022-08-25T19:36:27;28.60;64.20
18894;DHT22;9579;49.488;8.226;2022-08-25T19:39:15;28.60;64.20
18894;DHT22;9579;49.488;8.226;2022-08-25T19:42:02;28.60;64.20
18894;DHT22;9579;49.488;8.226;2022-08-25T19:44:51;28.50;64.30
18894;DHT22;9579;49.488;8.226;2022-08-25T19:47:38;28.50;64.80
18894;DHT22;9579;49.488;8.226;2022-08-25T19:50:26;28.50;64.60
18894;DHT22;9579;49.488;8.226;2022-08-25T19:53:13;28.40;64.50
18894;DHT22;9579;49.488;8.226;2022-08-25T19:56:00;28.40;64.40
18894;DHT22;9579;49.488;8.226;2022-08-25T19:58:48;28.30;65.30
18894;DHT22;9579;49.488;8.226;2022-08-25T20:01:37;28.30;65.60
18894;DHT22;9579;49.488;8.226;2022-08-25T20:04:24;28.20;65.80
18894;DHT22;9579;49.488;8.226;2022-08-25T20:07:11;28.10;65.50
18894;DHT22;9579;49.488;8.226;2022-08-25T20:09:59;28.10;65.00
18894;DHT22;9579;49.488;8.226;2022-08-25T20:12:46;28.10;65.00
18894;DHT22;9579;49.488;8.226;2022-08-25T20:15:34;28.10;65.10
18894;DHT22;9579;49.488;8.226;2022-08-25T20:18:22;28.10;65.10
18894;DHT22;9579;49.488;8.226;2022-08-25T20:21:09;28.00;65.40
18894;DHT22;9579;49.488;8.226;2022-08-25T20:23:56;27.90;65.60
18894;DHT22;9579;49.488;8.226;2022-08-25T20:27:01;27.90;66.00
18894;DHT22;9579;49.488;8.226;2022-08-25T20:29:49;27.80;65.90
18894;DHT22;9579;49.488;8.226;2022-08-25T20:32:37;27.80;66.60
18894;DHT22;9579;49.488;8.226;2022-08-25T20:35:26;27.80;66.00
18894;DHT22;9579;49.488;8.226;2022-08-25T20:38:13;27.70;66.30
18894;DHT22;9579;49.488;8.226;2022-08-25T20:41:01;27.70;66.50
18894;DHT22;9579;49.488;8.226;2022-08-25T20:43:48;27.70;66.70
18894;DHT22;9579;49.488;8.226;2022-08-25T20:46:35;27.60;67.00
18894;DHT22;9579;49.488;8.226;2022-08-25T20:49:26;27.60;67.10
18894;DHT22;9579;49.488;8.226;2022-08-25T20:52:15;27.60;67.10
18894;DHT22;9579;49.488;8.226;2022-08-25T20:55:08;27.50;66.80
18894;DHT22;9579;49.488;8.226;2022-08-25T20:57:55;27.50;66.90
18894;DHT22;9579;49.488;8.226;2022-08-25T21:00:43;27.50;66.80
18894;DHT22;9579;49.488;8.226;2022-08-25T21:03:30;27.40;67.10
18894;DHT22;9579;49.488;8.226;2022-08-25T21:06:17;27.40;67.60
18894;DHT22;9579;49.488;8.226;2022-08-25T21:09:07;27.30;67.60
18894;DHT22;9579;49.488;8.226;2022-08-25T21:11:55;27.30;67.50
18894;DHT22;9579;49.488;8.226;2022-08-25T21:14:42;27.30;67.60
18894;DHT22;9579;49.488;8.226;2022-08-25T21:17:30;27.30;68.20
18894;DHT22;9579;49.488;8.226;2022-08-25T21:20:17;27.30;68.30
18894;DHT22;9579;49.488;8.226;2022-08-25T21:23:04;27.10;69.00
18894;DHT22;9579;49.488;8.226;2022-08-25T21:25:53;26.90;69.40
18894;DHT22;9579;49.488;8.226;2022-08-25T21:28:41;26.80;69.90
18894;DHT22;9579;49.488;8.226;2022-08-25T21:31:29;26.70;70.30
18894;DHT22;9579;49.488;8.226;2022-08-25T21:34:18;26.60;70.30
18894;DHT22;9579;49.488;8.226;2022-08-25T21:37:05;26.50;70.70
18894;DHT22;9579;49.488;8.226;2022-08-25T21:39:52;26.40;71.20
18894;DHT22;9579;49.488;8.226;2022-08-25T21:42:41;26.40;71.60
18894;DHT22;9579;49.488;8.226;2022-08-25T21:45:28;26.40;71.70
18894;DHT22;9579;49.488;8.226;2022-08-25T21:48:15;26.30;71.70
18894;DHT22;9579;49.488;8.226;2022-08-25T21:51:03;26.30;72.10
18894;DHT22;9579;49.488;8.226;2022-08-25T21:53:51;26.20;72.10
18894;DHT22;9579;49.488;8.226;2022-08-25T21:56:55;26.20;71.90
18894;DHT22;9579;49.488;8.226;2022-08-25T21:59:45;26.10;72.20
18894;DHT22;9579;49.488;8.226;2022-08-25T22:02:32;25.90;72.50
18894;DHT22;9579;49.488;8.226;2022-08-25T22:05:19;25.80;72.90
18894;DHT22;9579;49.488;8.226;2022-08-25T22:08:06;25.70;73.40
18894;DHT22;9579;49.488;8.226;2022-08-25T22:10:53;25.70;73.60
18894;DHT22;9579;49.488;8.226;2022-08-25T22:13:41;25.70;73.80
18894;DHT22;9579;49.488;8.226;2022-08-25T22:16:31;25.70;73.70
18894;DHT22;9579;49.488;8.226;2022-08-25T22:19:19;25.50;73.50
18894;DHT22;9579;49.488;8.226;2022-08-25T22:22:06;25.40;73.90
18894;DHT22;9579;49.488;8.226;2022-08-25T22:24:53;25.30;74.20
18894;DHT22;9579;49.488;8.226;2022-08-25T22:27:41;25.30;74.60
18894;DHT22;9579;49.488;8.226;2022-08-25T22:30:28;25.30;74.80
18894;DHT22;9579;49.488;8.226;2022-08-25T22:33:16;25.30;75.00
18894;DHT22;9579;49.488;8.226;2022-08-25T22:36:15;25.20;75.10
18894;DHT22;9579;49.488;8.226;2022-08-25T22:39:05;25.20;75.40
18894;DHT22;9579;49.488;8.226;2022-08-25T22:41:52;25.20;75.80
18894;DHT22;9579;49.488;8.226;2022-08-25T22:44:40;25.20;76.00
